Wetterdaten: Woche 03.11.14 - 09.11.14 (KW45)
Datum Zeit Temp. A. Feuchte A. Luftdruck Regen Wind Richtung Sonnenschein ET UV Solar Taupunkt Windchill Windben
03.11.2014 00:00 3,7 C 94 % 1015,1 hPa 0,0 l/m 0,0 km/h (0 Bft) N 0,00 h 0,000 mm 0,0 UV-I 0 W/m 2,9 C 3,7 C 0,1 km/h (0 Bft)
03.11.2014 01:00 3,2 C 95 % 1014,7 hPa 0,0 l/m 0,0 km/h (0 Bft) N 0,00 h 0,000 mm 0,0 UV-I 0 W/m 2,5 C 3,2 C 0,2 km/h (0 Bft)
03.11.2014 02:00 2,8 C 95 % 1014,2 hPa 0,0 l/m 0,0 km/h (0 Bft) N 0,00 h 0,000 mm 0,0 UV-I 0 W/m 2,1 C 2,8 C 0,1 km/h (0 Bft)
03.11.2014 03:00 2,4 C 95 % 1013,7 hPa 0,0 l/m 0,1 km/h (0 Bft) N 0,00 h 0,000 mm 0,0 UV-I 0 W/m 1,7 C 2,4 C 0,5 km/h (0 Bft)
03.11.2014 04:00 2,4 C 96 % 1013,4 hPa 0,0 l/m 0,0 km/h (0 Bft) N 0,00 h 0,000 mm 0,0 UV-I 0 W/m 1,8 C 2,4 C 0,0 km/h (0 Bft)
03.11.2014 05:00 2,2 C 96 % 1013,1 hPa 0,0 l/m 0,2 km/h (0 Bft) N 0,00 h 0,000 mm 0,0 UV-I 0 W/m 1,7 C 2,2 C 0,5 km/h (0 Bft)
03.11.2014 06:00 2,2 C 96 % 1013,1 hPa 0,0 l/m 0,5 km/h (0 Bft) N 0,00 h 0,000 mm 0,0 UV-I 0 W/m 1,6 C 2,2 C 1,3 km/h (1 Bft)
03.11.2014 07:00 2,2 C 97 % 1013,1 hPa 0,0 l/m 0,1 km/h (0 Bft) N 0,00 h 0,000 mm 0,0 UV-I 20 W/m 1,8 C 2,2 C 0,2 km/h (0 Bft)
03.11.2014 08:00 3,3 C 97 % 1013,1 hPa 0,0 l/m 0,0 km/h (0 Bft) N 0,77 h 0,000 mm 0,5 UV-I 108 W/m 2,9 C 3,3 C 0,2 km/h (0 Bft)
03.11.2014 09:00 7,5 C 91 % 1012,9 hPa 0,0 l/m 0,0 km/h (0 Bft) N 1,00 h 0,051 mm 0,8 UV-I 262 W/m 6,1 C 7,5 C 0,3 km/h (0 Bft)
03.11.2014 10:00 10,1 C 85 % 1012,5 hPa 0,0 l/m 0,5 km/h (0 Bft) W-NW 1,00 h 0,102 mm 1,3 UV-I 366 W/m 7,6 C 10,1 C 1,8 km/h (1 Bft)
03.11.2014 11:00 12,4 C 80 % 1011,7 hPa 0,0 l/m 3,1 km/h (1 Bft) W 1,00 h 0,178 mm 1,6 UV-I 404 W/m 9,0 C 12,4 C 6,0 km/h (2 Bft)
03.11.2014 12:00 13,8 C 74 % 1010,6 hPa 0,0 l/m 5,6 km/h (2 Bft) S 1,00 h 0,203 mm 1,6 UV-I 404 W/m 9,2 C 13,4 C 9,1 km/h (2 Bft)
03.11.2014 13:00 14,8 C 71 % 1009,7 hPa 0,0 l/m 4,9 km/h (1 Bft) SW 1,00 h 0,229 mm 1,2 UV-I 350 W/m 9,5 C 14,7 C 8,8 km/h (2 Bft)
03.11.2014 14:00 14,7 C 72 % 1009,0 hPa 0,0 l/m 4,0 km/h (1 Bft) SW 1,00 h 0,203 mm 0,8 UV-I 255 W/m 9,6 C 14,7 C 7,1 km/h (2 Bft)
03.11.2014 15:00 13,6 C 76 % 1008,4 hPa 0,0 l/m 4,6 km/h (1 Bft) O-NO 0,80 h 0,152 mm 0,5 UV-I 98 W/m 9,4 C 13,5 C 8,2 km/h (2 Bft)
03.11.2014 16:00 10,1 C 85 % 1007,8 hPa 0,0 l/m 6,2 km/h (2 Bft) O-NO 0,00 h 0,051 mm 0,0 UV-I 16 W/m 7,7 C 9,4 C 10,9 km/h (2 Bft)
03.11.2014 17:00 8,0 C 90 % 1007,9 hPa 0,0 l/m 4,0 km/h (1 Bft) O-NO 0,00 h 0,025 mm 0,0 UV-I 0 W/m 6,5 C 8,0 C 7,9 km/h (2 Bft)
03.11.2014 18:00 7,2 C 93 % 1007,8 hPa 0,0 l/m 2,7 km/h (1 Bft) O-NO 0,00 h 0,000 mm 0,0 UV-I 0 W/m 6,1 C 7,2 C 6,3 km/h (2 Bft)
03.11.2014 19:00 6,9 C 95 % 1007,2 hPa 0,0 l/m 4,1 km/h (1 Bft) O-NO 0,00 h 0,000 mm 0,0 UV-I 0 W/m 6,1 C 6,7 C 8,9 km/h (2 Bft)
03.11.2014 20:00 6,6 C 95 % 1006,4 hPa 0,0 l/m 3,1 km/h (1 Bft) O-NO 0,00 h 0,000 mm 0,0 UV-I 0 W/m 5,9 C 6,6 C 7,0 km/h (2 Bft)
03.11.2014 21:00 6,1 C 95 % 1005,6 hPa 0,0 l/m 4,1 km/h (1 Bft) O-NO 0,00 h 0,000 mm 0,0 UV-I 0 W/m 5,4 C 5,9 C 9,0 km/h (2 Bft)
03.11.2014 22:00 5,8 C 96 % 1005,0 hPa 0,0 l/m 3,5 km/h (1 Bft) O 0,00 h 0,000 mm 0,0 UV-I 0 W/m 5,1 C 5,7 C 7,6 km/h (2 Bft)
03.11.2014 23:00 5,8 C 96 % 1004,4 hPa 0,0 l/m 4,3 km/h (1 Bft) O 0,00 h 0,000 mm 0,0 UV-I 0 W/m 5,2 C 5,6 C 8,9 km/h (2 Bft)
04.11.2014 00:00 5,7 C 96 % 1003,7 hPa 0,0 l/m 6,8 km/h (2 Bft) O-NO 0,00 h 0,000 mm 0,0 UV-I 0 W/m 5,2 C 4,7 C 12,5 km/h (2 Bft)
04.11.2014 01:00 5,3 C 95 % 1003,3 hPa 0,0 l/m 5,1 km/h (1 Bft) O-NO 0,00 h 0,000 mm 0,0 UV-I 0 W/m 4,6 C 5,0 C 10,1 km/h (2 Bft)
04.11.2014 02:00 4,9 C 94 % 1002,7 hPa 0,0 l/m 3,8 km/h (1 Bft) O 0,00 h 0,000 mm 0,0 UV-I 0 W/m 4,1 C 4,6 C 8,3 km/h (2 Bft)
04.11.2014 03:00 4,6 C 94 % 1001,9 hPa 0,0 l/m 2,7 km/h (1 Bft) O-NO 0,00 h 0,000 mm 0,0 UV-I 0 W/m 3,8 C 4,6 C 7,0 km/h (2 Bft)
04.11.2014 04:00 4,6 C 94 % 1001,5 hPa 0,0 l/m 2,8 km/h (1 Bft) O 0,00 h 0,000 mm 0,0 UV-I 0 W/m 3,7 C 4,5 C 6,3 km/h (2 Bft)
04.11.2014 05:00 4,5 C 94 % 1000,9 hPa 0,0 l/m 3,8 km/h (1 Bft) O 0,00 h 0,000 mm 0,0 UV-I 0 W/m 3,6 C 4,5 C 8,5 km/h (2 Bft)
04.11.2014 06:00 4,3 C 94 % 1000,7 hPa 0,0 l/m 3,1 km/h (1 Bft) O 0,00 h 0,000 mm 0,0 UV-I 5 W/m 3,4 C 4,3 C 7,2 km/h (2 Bft)
04.11.2014 07:00 4,4 C 95 % 1000,7 hPa 0,0 l/m 2,9 km/h (1 Bft) O-NO 0,13 h 0,000 mm 0,0 UV-I 30 W/m 3,6 C 4,4 C 6,9 km/h (2 Bft)
04.11.2014 08:00 6,6 C 91 % 1000,6 hPa 0,0 l/m 4,5 km/h (1 Bft) O-NO 1,00 h 0,025 mm 0,5 UV-I 189 W/m 5,1 C 6,3 C 9,3 km/h (2 Bft)
04.11.2014 09:00 8,6 C 84 % 1000,6 hPa 0,0 l/m 5,1 km/h (1 Bft) O-NO 1,00 h 0,076 mm 0,9 UV-I 280 W/m 6,0 C 8,1 C 9,7 km/h (2 Bft)
04.11.2014 10:00 9,6 C 81 % 1000,5 hPa 0,0 l/m 5,5 km/h (2 Bft) O-NO 1,00 h 0,127 mm 1,2 UV-I 281 W/m 6,5 C 9,1 C 10,7 km/h (2 Bft)
04.11.2014 11:00 9,2 C 83 % 1000,0 hPa 0,0 l/m 7,3 km/h (2 Bft) O-NO 1,00 h 0,127 mm 1,4 UV-I 275 W/m 6,4 C 8,1 C 12,7 km/h (3 Bft)
04.11.2014 12:00 10,4 C 79 % 999,1 hPa 0,0 l/m 4,7 km/h (1 Bft) O-NO 1,00 h 0,127 mm 1,4 UV-I 280 W/m 7,0 C 10,2 C 9,1 km/h (2 Bft)
04.11.2014 13:00 10,2 C 79 % 998,5 hPa 0,0 l/m 6,7 km/h (2 Bft) O-NO 1,00 h 0,152 mm 1,2 UV-I 255 W/m 6,8 C 9,4 C 12,2 km/h (2 Bft)
04.11.2014 14:00 9,5 C 82 % 998,0 hPa 0,0 l/m 8,0 km/h (2 Bft) O 1,00 h 0,127 mm 0,7 UV-I 140 W/m 6,6 C 8,1 C 13,9 km/h (3 Bft)
04.11.2014 15:00 9,1 C 85 % 997,9 hPa 0,0 l/m 8,3 km/h (2 Bft) O-NO 0,87 h 0,076 mm 0,0 UV-I 73 W/m 6,6 C 7,6 C 15,4 km/h (3 Bft)
04.11.2014 16:00 8,8 C 86 % 997,8 hPa 0,0 l/m 5,1 km/h (1 Bft) O 0,00 h 0,051 mm 0,0 UV-I 20 W/m 6,6 C 8,4 C 11,1 km/h (2 Bft)
04.11.2014 17:00 8,5 C 88 % 997,1 hPa 0,0 l/m 7,2 km/h (2 Bft) O 0,00 h 0,025 mm 0,0 UV-I 0 W/m 6,7 C 7,6 C 13,8 km/h (3 Bft)
04.11.2014 18:00 8,4 C 89 % 997,0 hPa 0,0 l/m 4,1 km/h (1 Bft) O-NO 0,00 h 0,025 mm 0,0 UV-I 0 W/m 6,7 C 8,2 C 8,1 km/h (2 Bft)
04.11.2014 19:00 8,2 C 90 % 996,4 hPa 0,0 l/m 4,9 km/h (1 Bft) O-NO 0,00 h 0,000 mm 0,0 UV-I 0 W/m 6,6 C 7,7 C 8,9 km/h (2 Bft)
04.11.2014 20:00 8,1 C 90 % 995,9 hPa 0,0 l/m 3,3 km/h (1 Bft) N 0,00 h 0,000 mm 0,0 UV-I 0 W/m 6,5 C 7,7 C 7,0 km/h (2 Bft)
04.11.2014 21:00 7,7 C 91 % 995,9 hPa 0,0 l/m 0,6 km/h (0 Bft) N 0,00 h 0,000 mm 0,0 UV-I 0 W/m 6,3 C 7,7 C 2,0 km/h (1 Bft)
04.11.2014 22:00 7,7 C 92 % 995,9 hPa 0,0 l/m 0,6 km/h (0 Bft) N 0,00 h 0,000 mm 0,0 UV-I 0 W/m 6,5 C 7,7 C 2,3 km/h (1 Bft)
04.11.2014 23:00 8,0 C 91 % 995,9 hPa 0,0 l/m 3,0 km/h (1 Bft) O-NO 0,00 h 0,000 mm 0,0 UV-I 0 W/m 6,6 C 7,9 C 6,6 km/h (2 Bft)
05.11.2014 00:00 8,3 C 88 % 995,3 hPa 0,0 l/m 6,0 km/h (2 Bft) O-NO 0,00 h 0,000 mm 0,0 UV-I 0 W/m 6,5 C 7,8 C 10,8 km/h (2 Bft)
05.11.2014 01:00 8,1 C 88 % 995,6 hPa 0,0 l/m 4,0 km/h (1 Bft) O-NO 0,00 h 0,000 mm 0,0 UV-I 0 W/m 6,2 C 8,1 C 8,6 km/h (2 Bft)
05.11.2014 02:00 8,0 C 88 % 996,0 hPa 0,0 l/m 3,6 km/h (1 Bft) O-NO 0,00 h 0,000 mm 0,0 UV-I 0 W/m 6,1 C 8,0 C 7,8 km/h (2 Bft)
05.11.2014 03:00 8,0 C 88 % 996,5 hPa 0,0 l/m 1,3 km/h (1 Bft) O 0,00 h 0,000 mm 0,0 UV-I 0 W/m 6,1 C 8,0 C 3,4 km/h (1 Bft)
05.11.2014 04:00 7,8 C 88 % 996,5 hPa 0,0 l/m 1,2 km/h (1 Bft) O 0,00 h 0,000 mm 0,0 UV-I 0 W/m 5,9 C 7,8 C 3,0 km/h (1 Bft)
05.11.2014 05:00 6,5 C 90 % 997,2 hPa 0,0 l/m 1,5 km/h (1 Bft) N 0,00 h 0,000 mm 0,0 UV-I 0 W/m 4,9 C 6,5 C 3,0 km/h (1 Bft)
05.11.2014 06:00 5,1 C 92 % 997,7 hPa 0,0 l/m 0,5 km/h (0 Bft) N 0,00 h 0,000 mm 0,0 UV-I 0 W/m 3,9 C 5,1 C 1,6 km/h (1 Bft)
05.11.2014 07:00 4,2 C 94 % 998,6 hPa 0,0 l/m 0,6 km/h (0 Bft) N 0,00 h 0,000 mm 0,0 UV-I 12 W/m 3,3 C 4,2 C 1,6 km/h (1 Bft)
05.11.2014 08:00 4,4 C 95 % 999,9 hPa 0,0 l/m 0,1 km/h (0 Bft) N 0,53 h 0,000 mm 0,5 UV-I 91 W/m 3,7 C 4,4 C 0,5 km/h (0 Bft)
05.11.2014 09:00 6,4 C 94 % 1000,4 hPa 0,0 l/m 1,3 km/h (1 Bft) S 0,88 h 0,025 mm 0,6 UV-I 99 W/m 5,5 C 6,4 C 3,0 km/h (1 Bft)
05.11.2014 10:00 6,5 C 95 % 1001,2 hPa 0,0 l/m 1,3 km/h (1 Bft) S-SO 0,92 h 0,051 mm 0,6 UV-I 93 W/m 5,8 C 6,5 C 3,2 km/h (1 Bft)
05.11.2014 11:00 7,1 C 95 % 1001,5 hPa 0,0 l/m 0,9 km/h (0 Bft) SO 0,98 h 0,051 mm 0,7 UV-I 113 W/m 6,4 C 7,1 C 2,3 km/h (1 Bft)
05.11.2014 12:00 8,2 C 92 % 1001,6 hPa 0,0 l/m 0,5 km/h (0 Bft) N 1,00 h 0,051 mm 0,7 UV-I 111 W/m 7,0 C 8,2 C 1,6 km/h (1 Bft)
05.11.2014 13:00 9,3 C 89 % 1001,7 hPa 0,0 l/m 0,3 km/h (0 Bft) N 1,00 h 0,051 mm 0,9 UV-I 186 W/m 7,6 C 9,3 C 1,0 km/h (0 Bft)
05.11.2014 14:00 9,8 C 88 % 1001,9 hPa 0,0 l/m 0,3 km/h (0 Bft) N 0,50 h 0,076 mm 0,6 UV-I 60 W/m 7,9 C 9,8 C 0,9 km/h (0 Bft)
05.11.2014 15:00 9,8 C 89 % 1002,2 hPa 0,0 l/m 0,4 km/h (0 Bft) S-SW 0,00 h 0,025 mm 0,0 UV-I 22 W/m 8,0 C 9,8 C 1,4 km/h (1 Bft)
05.11.2014 16:00 9,6 C 91 % 1002,4 hPa 0,0 l/m 2,3 km/h (1 Bft) W 0,00 h 0,000 mm 0,0 UV-I 8 W/m 8,3 C 9,6 C 4,4 km/h (1 Bft)
05.11.2014 17:00 9,3 C 93 % 1002,7 hPa 0,0 l/m 0,8 km/h (0 Bft) W 0,00 h 0,000 mm 0,0 UV-I 0 W/m 8,2 C 9,3 C 2,0 km/h (1 Bft)
05.11.2014 18:00 9,1 C 94 % 1003,2 hPa 0,0 l/m 0,7 km/h (0 Bft) W-NW 0,00 h 0,000 mm 0,0 UV-I 0 W/m 8,2 C 9,1 C 1,9 km/h (1 Bft)
05.11.2014 19:00 8,9 C 94 % 1003,5 hPa 0,0 l/m 1,8 km/h (1 Bft) NW 0,00 h 0,000 mm 0,0 UV-I 0 W/m 8,0 C 8,9 C 3,6 km/h (1 Bft)
05.11.2014 20:00 8,8 C 94 % 1004,2 hPa 0,0 l/m 1,5 km/h (1 Bft) W 0,00 h 0,000 mm 0,0 UV-I 0 W/m 7,9 C 8,8 C 3,2 km/h (1 Bft)
05.11.2014 21:00 8,5 C 94 % 1004,9 hPa 0,0 l/m 0,9 km/h (0 Bft) W-SW 0,00 h 0,000 mm 0,0 UV-I 0 W/m 7,6 C 8,5 C 2,5 km/h (1 Bft)
05.11.2014 22:00 8,2 C 95 % 1005,3 hPa 0,0 l/m 0,3 km/h (0 Bft) N 0,00 h 0,000 mm 0,0 UV-I 0 W/m 7,4 C 8,2 C 1,0 km/h (0 Bft)
05.11.2014 23:00 8,0 C 95 % 1005,6 hPa 0,4 l/m 1,8 km/h (1 Bft) S-SW 0,00 h 0,000 mm 0,0 UV-I 0 W/m 7,3 C 7,9 C 3,4 km/h (1 Bft)
06.11.2014 00:00 7,7 C 96 % 1006,1 hPa 0,4 l/m 6,3 km/h (2 Bft) NW 0,00 h 0,000 mm 0,0 UV-I 0 W/m 7,1 C 6,9 C 9,8 km/h (2 Bft)
06.11.2014 01:00 7,2 C 96 % 1006,7 hPa 0,6 l/m 4,8 km/h (1 Bft) NW 0,00 h 0,000 mm 0,0 UV-I 0 W/m 6,7 C 7,0 C 7,8 km/h (2 Bft)
06.11.2014 02:00 6,9 C 96 % 1006,9 hPa 0,2 l/m 5,0 km/h (1 Bft) NW 0,00 h 0,000 mm 0,0 UV-I 0 W/m 6,3 C 6,6 C 8,0 km/h (2 Bft)
06.11.2014 03:00 6,8 C 96 % 1007,5 hPa 0,6 l/m 2,0 km/h (1 Bft) W 0,00 h 0,000 mm 0,0 UV-I 0 W/m 6,2 C 6,8 C 3,9 km/h (1 Bft)
06.11.2014 04:00 6,7 C 97 % 1008,1 hPa 0,2 l/m 1,7 km/h (1 Bft) W-NW 0,00 h 0,000 mm 0,0 UV-I 0 W/m 6,3 C 6,7 C 3,7 km/h (1 Bft)
06.11.2014 05:00 6,6 C 97 % 1008,8 hPa 0,0 l/m 0,8 km/h (0 Bft) NW 0,00 h 0,000 mm 0,0 UV-I 0 W/m 6,1 C 6,6 C 2,3 km/h (1 Bft)
06.11.2014 06:00 6,5 C 96 % 1009,4 hPa 0,0 l/m 1,2 km/h (1 Bft) W 0,00 h 0,000 mm 0,0 UV-I 0 W/m 5,9 C 6,5 C 3,0 km/h (1 Bft)
06.11.2014 07:00 6,6 C 97 % 1010,4 hPa 0,0 l/m 1,3 km/h (1 Bft) W 0,00 h 0,000 mm 0,0 UV-I 15 W/m 6,1 C 6,6 C 2,8 km/h (1 Bft)
06.11.2014 08:00 6,8 C 97 % 1011,1 hPa 0,0 l/m 1,2 km/h (1 Bft) W-NW 0,18 h 0,000 mm 0,0 UV-I 37 W/m 6,4 C 6,8 C 2,9 km/h (1 Bft)
06.11.2014 09:00 7,1 C 97 % 1011,6 hPa 0,0 l/m 2,6 km/h (1 Bft) W-SW 0,62 h 0,025 mm 0,0 UV-I 58 W/m 6,6 C 7,1 C 4,8 km/h (1 Bft)
06.11.2014 10:00 7,4 C 95 % 1012,3 hPa 0,0 l/m 3,6 km/h (1 Bft) W-SW 0,80 h 0,025 mm 0,6 UV-I 73 W/m 6,7 C 7,4 C 6,6 km/h (2 Bft)
06.11.2014 11:00 7,9 C 93 % 1012,5 hPa 0,0 l/m 2,7 km/h (1 Bft) W-SW 0,87 h 0,025 mm 0,6 UV-I 62 W/m 6,8 C 7,9 C 5,4 km/h (1 Bft)
06.11.2014 12:00 7,9 C 92 % 1012,2 hPa 0,0 l/m 3,1 km/h (1 Bft) W-SW 0,88 h 0,025 mm 0,5 UV-I 69 W/m 6,7 C 7,9 C 5,9 km/h (2 Bft)
06.11.2014 13:00 7,9 C 91 % 1012,3 hPa 0,0 l/m 4,3 km/h (1 Bft) W-SW 0,78 h 0,027 mm 0,5 UV-I 60 W/m 6,6 C 7,7 C 7,1 km/h (2 Bft)
06.11.2014 14:00 7,3 C 92 % 1012,7 hPa 0,0 l/m 6,0 km/h (2 Bft) W-SW 0,00 h 0,025 mm 0,0 UV-I 21 W/m 6,1 C 6,7 C 9,3 km/h (2 Bft)
06.11.2014 15:00 7,0 C 93 % 1013,1 hPa 0,0 l/m 1,6 km/h (1 Bft) W-SW 0,00 h 0,025 mm 0,0 UV-I 16 W/m 5,9 C 7,0 C 3,6 km/h (1 Bft)
06.11.2014 16:00 7,1 C 93 % 1013,2 hPa 0,0 l/m 1,3 km/h (1 Bft) W 0,00 h 0,000 mm 0,0 UV-I 5 W/m 6,1 C 7,1 C 2,9 km/h (1 Bft)
06.11.2014 17:00 6,7 C 94 % 1013,6 hPa 0,0 l/m 1,9 km/h (1 Bft) W-SW 0,00 h 0,000 mm 0,0 UV-I 0 W/m 5,7 C 6,7 C 4,1 km/h (1 Bft)
06.11.2014 18:00 6,5 C 94 % 1014,0 hPa 0,0 l/m 0,2 km/h (0 Bft) N 0,00 h 0,000 mm 0,0 UV-I 0 W/m 5,6 C 6,5 C 0,9 km/h (0 Bft)
06.11.2014 19:00 6,3 C 95 % 1014,0 hPa 0,0 l/m 0,1 km/h (0 Bft) N 0,00 h 0,000 mm 0,0 UV-I 0 W/m 5,6 C 6,3 C 0,5 km/h (0 Bft)
06.11.2014 20:00 6,2 C 96 % 1014,1 hPa 0,0 l/m 0,1 km/h (0 Bft) N 0,00 h 0,000 mm 0,0 UV-I 0 W/m 5,5 C 6,2 C 0,6 km/h (0 Bft)
06.11.2014 21:00 6,1 C 96 % 1014,1 hPa 0,0 l/m 0,0 km/h (0 Bft) N 0,00 h 0,000 mm 0,0 UV-I 0 W/m 5,5 C 6,1 C 0,2 km/h (0 Bft)
06.11.2014 22:00 6,0 C 96 % 1013,9 hPa 0,0 l/m 0,2 km/h (0 Bft) N 0,00 h 0,000 mm 0,0 UV-I 0 W/m 5,4 C 6,0 C 0,8 km/h (0 Bft)
06.11.2014 23:00 5,9 C 96 % 1013,7 hPa 0,0 l/m 0,0 km/h (0 Bft) N 0,00 h 0,000 mm 0,0 UV-I 0 W/m 5,3 C 5,9 C 0,3 km/h (0 Bft)
07.11.2014 00:00 5,8 C 96 % 1013,5 hPa 0,0 l/m 0,1 km/h (0 Bft) N 0,00 h 0,000 mm 0,0 UV-I 0 W/m 5,2 C 5,8 C 0,3 km/h (0 Bft)
07.11.2014 01:00 5,7 C 97 % 1013,3 hPa 0,0 l/m 0,1 km/h (0 Bft) N 0,00 h 0,000 mm 0,0 UV-I 0 W/m 5,2 C 5,7 C 0,6 km/h (0 Bft)
07.11.2014 02:00 5,4 C 97 % 1012,7 hPa 0,0 l/m 0,3 km/h (0 Bft) N 0,00 h 0,000 mm 0,0 UV-I 0 W/m 4,9 C 5,4 C 1,0 km/h (0 Bft)
07.11.2014 03:00 5,1 C 96 % 1012,2 hPa 0,0 l/m 1,5 km/h (1 Bft) N 0,00 h 0,000 mm 0,0 UV-I 0 W/m 4,5 C 5,1 C 3,3 km/h (1 Bft)
07.11.2014 04:00 4,7 C 96 % 1012,2 hPa 0,0 l/m 0,9 km/h (0 Bft) N 0,00 h 0,000 mm 0,0 UV-I 0 W/m 4,1 C 4,7 C 2,1 km/h (1 Bft)
07.11.2014 05:00 4,5 C 96 % 1011,8 hPa 0,0 l/m 0,9 km/h (0 Bft) N-NO 0,00 h 0,000 mm 0,0 UV-I 0 W/m 3,9 C 4,5 C 2,5 km/h (1 Bft)
07.11.2014 06:00 4,4 C 96 % 1011,5 hPa 0,0 l/m 0,5 km/h (0 Bft) N 0,00 h 0,000 mm 0,0 UV-I 0 W/m 3,8 C 4,4 C 1,5 km/h (1 Bft)
07.11.2014 07:00 4,4 C 95 % 1011,2 hPa 0,0 l/m 0,2 km/h (0 Bft) N 0,00 h 0,000 mm 0,0 UV-I 10 W/m 3,7 C 4,4 C 1,0 km/h (0 Bft)
07.11.2014 08:00 4,4 C 95 % 1011,3 hPa 0,0 l/m 0,6 km/h (0 Bft) N 0,00 h 0,000 mm 0,0 UV-I 32 W/m 3,6 C 4,4 C 1,8 km/h (1 Bft)
07.11.2014 09:00 4,5 C 95 % 1011,3 hPa 0,0 l/m 1,3 km/h (1 Bft) SO 0,85 h 0,025 mm 0,5 UV-I 67 W/m 3,7 C 4,5 C 2,6 km/h (1 Bft)
07.11.2014 10:00 4,8 C 95 % 1010,9 hPa 0,0 l/m 0,2 km/h (0 Bft) N 1,00 h 0,025 mm 0,5 UV-I 75 W/m 4,1 C 4,8 C 0,9 km/h (0 Bft)
07.11.2014 11:00 5,6 C 94 % 1010,0 hPa 0,0 l/m 0,5 km/h (0 Bft) S-SO 1,00 h 0,025 mm 0,6 UV-I 75 W/m 4,8 C 5,6 C 1,7 km/h (1 Bft)
07.11.2014 12:00 6,4 C 93 % 1009,6 hPa 0,0 l/m 2,9 km/h (1 Bft) S-SO 1,00 h 0,025 mm 0,5 UV-I 68 W/m 5,4 C 6,4 C 4,7 km/h (1 Bft)
07.11.2014 13:00 7,1 C 91 % 1009,1 hPa 0,0 l/m 4,5 km/h (1 Bft) S 0,00 h 0,025 mm 0,0 UV-I 37 W/m 5,7 C 7,0 C 7,3 km/h (2 Bft)
07.11.2014 14:00 7,0 C 92 % 1009,4 hPa 0,0 l/m 3,1 km/h (1 Bft) S 0,00 h 0,027 mm 0,0 UV-I 34 W/m 5,8 C 7,0 C 5,4 km/h (2 Bft)
07.11.2014 15:00 6,9 C 93 % 1009,3 hPa 0,0 l/m 5,0 km/h (1 Bft) S 0,00 h 0,025 mm 0,0 UV-I 23 W/m 5,8 C 6,6 C 8,0 km/h (2 Bft)
07.11.2014 16:00 6,8 C 92 % 1009,9 hPa 0,0 l/m 5,7 km/h (2 Bft) S 0,00 h 0,025 mm 0,0 UV-I 7 W/m 5,6 C 6,4 C 9,2 km/h (2 Bft)
07.11.2014 17:00 6,6 C 93 % 1010,5 hPa 0,0 l/m 5,3 km/h (1 Bft) S 0,00 h 0,000 mm 0,0 UV-I 0 W/m 5,5 C 6,5 C 8,4 km/h (2 Bft)
07.11.2014 18:00 6,4 C 93 % 1010,8 hPa 0,0 l/m 4,3 km/h (1 Bft) S 0,00 h 0,000 mm 0,0 UV-I 0 W/m 5,3 C 6,3 C 7,4 km/h (2 Bft)
07.11.2014 19:00 6,1 C 91 % 1011,9 hPa 0,0 l/m 6,9 km/h (2 Bft) S 0,00 h 0,000 mm 0,0 UV-I 0 W/m 4,7 C 5,1 C 11,2 km/h (2 Bft)
07.11.2014 20:00 5,9 C 91 % 1012,4 hPa 0,0 l/m 5,5 km/h (2 Bft) S-SW 0,00 h 0,000 mm 0,0 UV-I 0 W/m 4,5 C 5,3 C 9,0 km/h (2 Bft)
07.11.2014 21:00 5,7 C 92 % 1012,7 hPa 0,0 l/m 4,6 km/h (1 Bft) SW 0,00 h 0,001 mm 0,0 UV-I 0 W/m 4,4 C 5,5 C 7,9 km/h (2 Bft)
07.11.2014 22:00 5,5 C 93 % 1013,1 hPa 0,0 l/m 4,0 km/h (1 Bft) S 0,00 h 0,000 mm 0,0 UV-I 0 W/m 4,4 C 5,5 C 6,8 km/h (2 Bft)
07.11.2014 23:00 5,4 C 93 % 1013,3 hPa 0,0 l/m 1,9 km/h (1 Bft) S-SO 0,00 h 0,000 mm 0,0 UV-I 0 W/m 4,4 C 5,4 C 3,9 km/h (1 Bft)
08.11.2014 00:00 5,8 C 93 % 1013,7 hPa 0,0 l/m 5,0 km/h (1 Bft) S 0,00 h 0,000 mm 0,0 UV-I 0 W/m 4,9 C 5,7 C 8,4 km/h (2 Bft)
08.11.2014 01:00 6,2 C 93 % 1014,3 hPa 0,0 l/m 2,2 km/h (1 Bft) S 0,00 h 0,000 mm 0,0 UV-I 0 W/m 5,1 C 6,1 C 4,6 km/h (1 Bft)
08.11.2014 02:00 6,3 C 93 % 1014,4 hPa 0,0 l/m 0,9 km/h (0 Bft) SW 0,00 h 0,000 mm 0,0 UV-I 0 W/m 5,2 C 6,3 C 2,5 km/h (1 Bft)
08.11.2014 03:00 6,0 C 93 % 1014,6 hPa 0,0 l/m 0,4 km/h (0 Bft) N 0,00 h 0,000 mm 0,0 UV-I 0 W/m 5,0 C 6,0 C 1,2 km/h (1 Bft)
08.11.2014 04:00 5,7 C 94 % 1015,0 hPa 0,0 l/m 0,3 km/h (0 Bft) N 0,00 h 0,000 mm 0,0 UV-I 0 W/m 4,8 C 5,7 C 1,4 km/h (1 Bft)
08.11.2014 05:00 5,4 C 94 % 1015,3 hPa 0,0 l/m 0,1 km/h (0 Bft) N 0,00 h 0,000 mm 0,0 UV-I 0 W/m 4,5 C 5,4 C 0,4 km/h (0 Bft)
08.11.2014 06:00 5,2 C 95 % 1015,7 hPa 0,0 l/m 0,0 km/h (0 Bft) N 0,00 h 0,000 mm 0,0 UV-I 0 W/m 4,5 C 5,2 C 0,2 km/h (0 Bft)
08.11.2014 07:00 4,9 C 95 % 1016,4 hPa 0,0 l/m 0,0 km/h (0 Bft) N 0,00 h 0,000 mm 0,0 UV-I 9 W/m 4,2 C 4,9 C 0,0 km/h (0 Bft)
08.11.2014 08:00 5,4 C 97 % 1017,0 hPa 0,0 l/m 0,7 km/h (0 Bft) N-NO 0,00 h 0,000 mm 0,0 UV-I 29 W/m 4,9 C 5,4 C 1,4 km/h (1 Bft)
08.11.2014 09:00 6,2 C 97 % 1017,3 hPa 0,0 l/m 0,2 km/h (0 Bft) N 0,78 h 0,000 mm 0,5 UV-I 64 W/m 5,7 C 6,2 C 0,6 km/h (0 Bft)
08.11.2014 10:00 7,4 C 93 % 1017,3 hPa 0,0 l/m 1,4 km/h (1 Bft) W-SW 1,00 h 0,025 mm 0,8 UV-I 131 W/m 6,4 C 7,4 C 3,4 km/h (1 Bft)
08.11.2014 11:00 8,6 C 89 % 1017,1 hPa 0,0 l/m 3,2 km/h (1 Bft) SW 1,00 h 0,051 mm 1,0 UV-I 152 W/m 6,8 C 8,6 C 5,6 km/h (2 Bft)
08.11.2014 12:00 9,8 C 84 % 1016,5 hPa 0,0 l/m 6,3 km/h (2 Bft) W-SW 1,00 h 0,076 mm 1,4 UV-I 354 W/m 7,2 C 9,0 C 9,7 km/h (2 Bft)
08.11.2014 13:00 11,5 C 75 % 1016,0 hPa 0,0 l/m 4,3 km/h (1 Bft) SW 1,00 h 0,178 mm 1,1 UV-I 345 W/m 7,3 C 11,4 C 7,1 km/h (2 Bft)
08.11.2014 14:00 11,7 C 72 % 1015,6 hPa 0,0 l/m 4,7 km/h (1 Bft) SW 1,00 h 0,178 mm 0,7 UV-I 239 W/m 6,8 C 11,5 C 7,7 km/h (2 Bft)
08.11.2014 15:00 11,0 C 75 % 1015,1 hPa 0,0 l/m 3,2 km/h (1 Bft) S 0,70 h 0,127 mm 0,5 UV-I 84 W/m 6,8 C 11,0 C 5,8 km/h (2 Bft)
08.11.2014 16:00 9,5 C 80 % 1015,1 hPa 0,0 l/m 2,2 km/h (1 Bft) S-SO 0,00 h 0,051 mm 0,0 UV-I 15 W/m 6,3 C 9,5 C 4,1 km/h (1 Bft)
08.11.2014 17:00 8,1 C 84 % 1015,1 hPa 0,0 l/m 0,9 km/h (0 Bft) O-SO 0,00 h 0,000 mm 0,0 UV-I 0 W/m 5,7 C 8,1 C 2,3 km/h (1 Bft)
08.11.2014 18:00 6,3 C 87 % 1015,1 hPa 0,0 l/m 0,4 km/h (0 Bft) N 0,00 h 0,000 mm 0,0 UV-I 0 W/m 4,4 C 6,3 C 1,3 km/h (1 Bft)
08.11.2014 19:00 4,5 C 90 % 1014,7 hPa 0,0 l/m 0,6 km/h (0 Bft) N 0,00 h 0,000 mm 0,0 UV-I 0 W/m 3,1 C 4,5 C 1,7 km/h (1 Bft)
08.11.2014 20:00 3,3 C 92 % 1014,5 hPa 0,0 l/m 0,2 km/h (0 Bft) N 0,00 h 0,000 mm 0,0 UV-I 0 W/m 2,2 C 3,3 C 0,8 km/h (0 Bft)
08.11.2014 21:00 2,4 C 93 % 1014,3 hPa 0,0 l/m 0,1 km/h (0 Bft) N 0,00 h 0,000 mm 0,0 UV-I 0 W/m 1,4 C 2,4 C 0,4 km/h (0 Bft)
08.11.2014 22:00 2,5 C 95 % 1013,7 hPa 0,0 l/m 0,5 km/h (0 Bft) N 0,00 h 0,000 mm 0,0 UV-I 0 W/m 1,8 C 2,5 C 1,5 km/h (1 Bft)
08.11.2014 23:00 3,2 C 97 % 1013,1 hPa 0,0 l/m 1,1 km/h (0 Bft) NO 0,00 h 0,000 mm 0,0 UV-I 0 W/m 2,8 C 3,2 C 3,0 km/h (1 Bft)
09.11.2014 00:00 2,4 C 96 % 1012,7 hPa 0,0 l/m 1,2 km/h (1 Bft) NO 0,00 h 0,000 mm 0,0 UV-I 0 W/m 1,8 C 2,4 C 4,0 km/h (1 Bft)
09.11.2014 01:00 4,5 C 98 % 1012,7 hPa 0,0 l/m 3,7 km/h (1 Bft) O 0,00 h 0,000 mm 0,0 UV-I 0 W/m 4,2 C 4,0 C 6,8 km/h (2 Bft)
09.11.2014 02:00 5,4 C 97 % 1012,2 hPa 0,0 l/m 4,4 km/h (1 Bft) O 0,00 h 0,000 mm 0,0 UV-I 0 W/m 5,0 C 5,2 C 9,2 km/h (2 Bft)
09.11.2014 03:00 5,6 C 96 % 1011,7 hPa 0,0 l/m 5,6 km/h (2 Bft) O 0,00 h 0,000 mm 0,0 UV-I 0 W/m 5,1 C 5,1 C 11,0 km/h (2 Bft)
09.11.2014 04:00 5,8 C 94 % 1011,4 hPa 0,0 l/m 3,3 km/h (1 Bft) O 0,00 h 0,000 mm 0,0 UV-I 0 W/m 4,9 C 5,7 C 7,8 km/h (2 Bft)
09.11.2014 05:00 5,8 C 93 % 1011,2 hPa 0,0 l/m 2,2 km/h (1 Bft) O 0,00 h 0,000 mm 0,0 UV-I 0 W/m 4,8 C 5,8 C 5,4 km/h (1 Bft)
09.11.2014 06:00 5,9 C 94 % 1011,1 hPa 0,0 l/m 0,9 km/h (0 Bft) O-SO 0,00 h 0,000 mm 0,0 UV-I 0 W/m 5,0 C 5,9 C 2,6 km/h (1 Bft)
09.11.2014 07:00 5,9 C 95 % 1011,8 hPa 0,0 l/m 3,0 km/h (1 Bft) S-SO 0,00 h 0,000 mm 0,0 UV-I 16 W/m 5,1 C 5,8 C 5,5 km/h (2 Bft)
09.11.2014 08:00 6,2 C 94 % 1012,1 hPa 0,0 l/m 3,9 km/h (1 Bft) SO 0,18 h 0,000 mm 0,0 UV-I 43 W/m 5,3 C 6,2 C 6,5 km/h (2 Bft)
09.11.2014 09:00 6,8 C 93 % 1012,0 hPa 0,0 l/m 2,3 km/h (1 Bft) SO 0,97 h 0,025 mm 0,6 UV-I 134 W/m 5,8 C 6,8 C 4,9 km/h (1 Bft)
09.11.2014 10:00 7,2 C 91 % 1012,3 hPa 0,0 l/m 2,5 km/h (1 Bft) SO 1,00 h 0,051 mm 0,6 UV-I 104 W/m 5,9 C 7,2 C 5,0 km/h (1 Bft)
09.11.2014 11:00 7,6 C 91 % 1012,1 hPa 0,0 l/m 5,3 km/h (1 Bft) SO 1,00 h 0,051 mm 0,8 UV-I 118 W/m 6,2 C 7,2 C 9,5 km/h (2 Bft)
09.11.2014 12:00 8,0 C 91 % 1011,7 hPa 0,0 l/m 3,4 km/h (1 Bft) O-SO 1,00 h 0,051 mm 0,6 UV-I 98 W/m 6,5 C 7,9 C 6,7 km/h (2 Bft)
09.11.2014 13:00 8,2 C 90 % 1011,4 hPa 0,0 l/m 2,3 km/h (1 Bft) O-SO 0,93 h 0,051 mm 0,6 UV-I 89 W/m 6,7 C 8,2 C 5,2 km/h (1 Bft)
09.11.2014 14:00 8,1 C 90 % 1011,7 hPa 0,0 l/m 3,6 km/h (1 Bft) O-SO 0,73 h 0,051 mm 0,5 UV-I 64 W/m 6,5 C 8,0 C 7,3 km/h (2 Bft)
09.11.2014 15:00 7,7 C 91 % 1011,9 hPa 0,0 l/m 3,7 km/h (1 Bft) O-SO 0,03 h 0,025 mm 0,0 UV-I 27 W/m 6,3 C 7,7 C 7,4 km/h (2 Bft)
09.11.2014 16:00 7,2 C 92 % 1011,9 hPa 0,0 l/m 3,0 km/h (1 Bft) O 0,00 h 0,025 mm 0,0 UV-I 6 W/m 6,0 C 7,2 C 6,7 km/h (2 Bft)
09.11.2014 17:00 6,8 C 93 % 1012,1 hPa 0,0 l/m 3,5 km/h (1 Bft) O-NO 0,00 h 0,000 mm 0,0 UV-I 0 W/m 5,8 C 6,7 C 7,3 km/h (2 Bft)
09.11.2014 18:00 6,6 C 94 % 1012,0 hPa 0,0 l/m 3,1 km/h (1 Bft) O 0,00 h 0,000 mm 0,0 UV-I 0 W/m 5,8 C 6,5 C 6,9 km/h (2 Bft)
09.11.2014 19:00 6,6 C 95 % 1012,0 hPa 0,0 l/m 2,5 km/h (1 Bft) O-NO 0,00 h 0,000 mm 0,0 UV-I 0 W/m 5,9 C 6,6 C 5,5 km/h (2 Bft)
09.11.2014 20:00 6,6 C 95 % 1012,0 hPa 0,0 l/m 2,3 km/h (1 Bft) O-NO 0,00 h 0,000 mm 0,0 UV-I 0 W/m 5,9 C 6,6 C 5,3 km/h (1 Bft)
09.11.2014 21:00 6,4 C 95 % 1012,0 hPa 0,0 l/m 5,1 km/h (1 Bft) O 0,00 h 0,000 mm 0,0 UV-I 0 W/m 5,7 C 5,9 C 10,4 km/h (2 Bft)
09.11.2014 22:00 6,3 C 95 % 1011,7 hPa 0,0 l/m 3,7 km/h (1 Bft) O-NO 0,00 h 0,000 mm 0,0 UV-I 0 W/m 5,6 C 6,2 C 8,5 km/h (2 Bft)
09.11.2014 23:00 6,2 C 95 % 1011,3 hPa 0,0 l/m 5,4 km/h (2 Bft) O-NO 0,00 h 0,000 mm 0,0 UV-I 0 W/m 5,5 C 5,8 C 10,7 km/h (2 Bft)
Min-Datum _ 08.11.14 03.11.14 05.11.14 - 03.11.14 - - - - - 08.11.14 09.11.14 03.11.14
_ Min-Zeit 22:10 13:32 00:16 - 00:00 - - - - - 22:10 00:50 00:01
Minimum _ 1,8 C 69 % 995,2 hPa - 0,0 km/h (0 Bft) - - - - - 0,8 C 0,6 C 0,0 km/h (0 Bft)
Max-Datum _ 03.11.14 03.11.14 08.11.14 06.11.14 04.11.14 - 09.11.14 03.11.14 04.11.14 04.11.14 03.11.14 03.11.14 07.11.14
_ Max-Zeit 13:46 08:37 09:30 01:04 14:44 - 09:18 13:00 12:00 10:16 14:22 13:54 19:21
Maximum _ 15,1 C 98 % 1017,4 hPa 0,6 l/m 14,5 km/h
O (3 Bft)
- 0,08 h 0,229 mm 1,8 UV-I 464 W/m 10,2 C 15,1 C 25,7 km/h
S (4 Bft)
Durchschnitt _ 6,8 C 92 % 1008,6 hPa #2,4 l/m 2,6 km/h (1 Bft) N #41:42 h #3,858 mm 0,8 UV-I 111 W/m 5,5 C 6,7 C 5,1 km/h (1 Bft)